Time;durP1;ratioP1;P1;durP2;ratioP2;P2;SDS_P1;SDS_P2;PMS_P1;PMS_P2;Temp;Humidity;BMP_temperature;BMP_pressure;BME280_temperature;BME280_humidity;BME280_pressure;Samples;Min_cycle;Max_cycle;Signal;HPM_P1;HPM_P2
2024/04/16 00:00:05;;;;;;;;;0.00;0.00;;;;;9.32;63.60;100738.09;5463423;26;43984;-51
2024/04/16 00:02:30;;;;;;;;;2.75;0.00;;;;;9.31;63.30;100736.41;5437303;26;43797;-49
2024/04/16 00:04:55;;;;;;;;;2.00;0.75;;;;;9.29;64.52;100734.69;5442580;25;62701;-50
2024/04/16 00:07:21;;;;;;;;;6.00;0.75;;;;;9.29;64.52;100727.72;5438215;26;44021;-48
2024/04/16 00:09:46;;;;;;;;;0.00;0.00;;;;;9.27;64.74;100733.88;5445372;26;44061;-52
2024/04/16 00:12:11;;;;;;;;;3.25;0.00;;;;;9.25;64.40;100735.66;5489263;25;44596;-48
2024/04/16 00:14:37;;;;;;;;;0.50;0.00;;;;;9.22;64.36;100730.50;5460986;25;63766;-52
2024/04/16 00:17:02;;;;;;;;;2.50;0.00;;;;;9.19;65.29;100731.44;5464744;25;59252;-49
2024/04/16 00:19:27;;;;;;;;;1.50;0.00;;;;;9.20;64.54;100727.06;5464774;25;43994;-52
2024/04/16 00:21:53;;;;;;;;;2.50;1.50;;;;;9.18;64.04;100727.09;5463639;25;70957;-50
2024/04/16 00:24:19;;;;;;;;;1.75;0.00;;;;;9.17;65.25;100727.13;5467680;25;64321;-48
2024/04/16 00:26:44;;;;;;;;;3.75;1.00;;;;;9.16;64.51;100733.25;5464108;26;43977;-51
2024/04/16 00:29:09;;;;;;;;;3.25;0.00;;;;;9.16;64.50;100728.03;5464744;25;70837;-50
2024/04/16 00:31:35;;;;;;;;;0.00;0.00;;;;;9.14;64.54;100720.22;5464370;25;57953;-48
2024/04/16 00:34:00;;;;;;;;;4.25;1.00;;;;;9.16;64.42;100722.81;5462915;26;43914;-48
2024/04/16 00:36:25;;;;;;;;;0.25;0.00;;;;;9.16;64.09;100726.28;5462719;26;44051;-49
2024/04/16 00:38:51;;;;;;;;;1.00;0.00;;;;;9.16;65.69;100717.59;5428410;26;44057;-49
2024/04/16 00:41:16;;;;;;;;;2.00;1.00;;;;;9.21;65.30;100711.38;5457373;26;69095;-49
2024/04/16 00:43:41;;;;;;;;;0.00;0.00;;;;;9.22;64.64;100705.25;5433594;26;43915;-51
2024/04/16 00:46:07;;;;;;;;;2.75;1.00;;;;;9.25;64.71;100693.88;5464299;25;66856;-53
2024/04/16 00:48:32;;;;;;;;;3.25;0.00;;;;;9.23;64.65;100688.69;5468115;25;43834;-49
2024/04/16 00:50:58;;;;;;;;;3.00;1.00;;;;;9.18;64.71;100687.94;5426763;26;55651;-50
2024/04/16 00:53:25;;;;;;;;;0.00;0.00;;;;;9.16;64.59;100681.88;5464719;26;44850;-48
2024/04/16 00:55:51;;;;;;;;;5.00;1.00;;;;;9.17;64.61;100674.91;5485236;25;43814;-52
2024/04/16 00:58:17;;;;;;;;;0.00;0.00;;;;;9.14;65.45;100675.84;5431043;26;61828;-50
2024/04/16 01:00:43;;;;;;;;;0.00;0.00;;;;;9.18;65.23;100664.44;5454374;26;44740;-49
2024/04/16 01:03:09;;;;;;;;;5.75;0.00;;;;;9.20;64.78;100670.47;5467869;25;44387;-48
2024/04/16 01:05:35;;;;;;;;;2.75;1.00;;;;;9.22;65.32;100673.91;5465735;25;67779;-50
2024/04/16 01:08:01;;;;;;;;;2.00;1.00;;;;;9.22;65.04;100657.38;5467306;25;63054;-51
2024/04/16 01:10:26;;;;;;;;;2.00;1.00;;;;;9.25;65.12;100662.56;5453892;26;47873;-49
2024/04/16 01:12:51;;;;;;;;;6.75;2.00;;;;;9.26;65.37;100665.13;5437704;25;43976;-51
2024/04/16 01:15:17;;;;;;;;;8.00;1.00;;;;;9.27;64.91;100660.75;5465144;25;67518;-52
2024/04/16 01:17:43;;;;;;;;;3.50;1.00;;;;;9.25;64.30;100652.09;5464672;26;71351;-54
2024/04/16 01:20:08;;;;;;;;;1.25;0.75;;;;;9.24;64.12;100650.38;5466693;26;44542;-49
2024/04/16 01:22:33;;;;;;;;;2.00;1.00;;;;;9.22;65.10;100652.16;5466512;25;43865;-50
2024/04/16 01:24:59;;;;;;;;;3.75;0.00;;;;;9.19;65.43;100654.84;5465634;25;68475;-50
2024/04/16 01:27:24;;;;;;;;;4.75;1.00;;;;;9.15;65.29;100648.84;5457317;25;71860;-51
2024/04/16 01:29:50;;;;;;;;;8.25;1.25;;;;;9.12;64.76;100654.16;5430564;26;74126;-51
2024/04/16 01:32:15;;;;;;;;;1.00;1.00;;;;;9.10;65.57;100679.41;5457136;26;73046;-50
2024/04/16 01:34:41;;;;;;;;;1.50;0.75;;;;;9.08;65.15;100663.78;5443491;25;43815;-49
2024/04/16 01:37:07;;;;;;;;;2.00;0.00;;;;;9.05;65.51;100653.41;5432358;26;43813;-48
2024/04/16 01:39:32;;;;;;;;;2.00;0.75;;;;;9.04;65.53;100651.69;5431039;26;43774;-47
2024/04/16 01:41:58;;;;;;;;;1.00;0.00;;;;;9.05;65.10;100649.94;5453304;26;43880;-48
2024/04/16 01:44:23;;;;;;;;;1.75;0.50;;;;;9.02;66.17;100643.03;5436137;25;68160;-47
2024/04/16 01:46:48;;;;;;;;;1.00;0.00;;;;;9.04;65.59;100649.06;5453838;26;43847;-52
2024/04/16 01:49:14;;;;;;;;;2.50;1.00;;;;;9.03;65.51;100643.88;5428914;26;56591;-52
2024/04/16 01:51:39;;;;;;;;;2.75;1.00;;;;;9.04;65.80;100649.06;5452409;26;72707;-51
2024/04/16 01:54:04;;;;;;;;;2.25;0.50;;;;;9.01;65.41;100643.94;5464446;26;49596;-49
2024/04/16 01:56:30;;;;;;;;;3.00;1.00;;;;;9.00;65.62;100652.66;5456943;25;58914;-49
2024/04/16 01:58:55;;;;;;;;;6.00;1.00;;;;;9.02;65.15;100650.88;5466947;25;46147;-52
2024/04/16 02:01:20;;;;;;;;;5.25;1.00;;;;;9.01;65.29;100640.44;5465992;25;63669;-51
2024/04/16 02:03:46;;;;;;;;;4.75;2.25;;;;;8.92;65.64;100626.72;5447602;26;43877;-49
2024/04/16 02:06:11;;;;;;;;;4.00;1.00;;;;;8.96;65.13;100632.75;5455675;25;65104;-53
2024/04/16 02:08:36;;;;;;;;;2.50;1.00;;;;;8.93;64.94;100644.09;5464777;26;60369;-48
2024/04/16 02:11:02;;;;;;;;;4.50;1.00;;;;;8.91;65.92;100637.19;5456187;25;66814;-50
2024/04/16 02:13:30;;;;;;;;;2.00;1.00;;;;;8.90;66.43;100635.47;5467264;25;43978;-49
2024/04/16 02:15:55;;;;;;;;;1.00;0.00;;;;;8.89;66.00;100633.78;5460849;25;43841;-52
2024/04/16 02:18:21;;;;;;;;;3.75;1.00;;;;;8.87;66.54;100641.63;5442327;26;45717;-52
2024/04/16 02:20:46;;;;;;;;;1.00;0.00;;;;;8.89;66.69;100637.22;5444267;26;72953;-50
2024/04/16 02:23:11;;;;;;;;;0.25;0.25;;;;;8.89;65.59;100647.66;5446361;25;57727;-52
2024/04/16 02:25:37;;;;;;;;;6.50;0.00;;;;;8.90;66.21;100640.69;5457351;25;55985;-51
2024/04/16 02:28:02;;;;;;;;;1.00;1.00;;;;;8.89;65.64;100633.78;5466171;25;71801;-50
2024/04/16 02:30:29;;;;;;;;;2.00;1.00;;;;;8.89;65.41;100632.00;5465177;26;43808;-49
2024/04/16 02:32:54;;;;;;;;;2.75;0.50;;;;;8.91;66.52;100640.66;5467256;26;43845;-46
2024/04/16 02:35:20;;;;;;;;;4.00;1.00;;;;;8.88;65.94;100630.28;5466116;25;43929;-47
2024/04/16 02:37:48;;;;;;;;;4.50;1.00;;;;;8.87;65.65;100627.69;5464537;26;54784;-48
2024/04/16 02:40:16;;;;;;;;;2.00;0.00;;;;;8.86;66.68;100624.25;5466461;25;43795;-50
2024/04/16 02:42:42;;;;;;;;;2.75;0.25;;;;;8.87;66.83;100614.66;5435155;26;43938;-50
2024/04/16 02:45:07;;;;;;;;;3.50;0.25;;;;;8.87;66.18;100617.25;5459573;25;44269;-47
2024/04/16 02:47:32;;;;;;;;;0.00;0.00;;;;;8.89;66.80;100629.41;5465146;25;72787;-50
2024/04/16 02:49:58;;;;;;;;;3.50;0.25;;;;;8.91;65.82;100609.34;5465715;25;69447;-48
2024/04/16 02:52:23;;;;;;;;;3.00;0.00;;;;;8.97;66.66;100610.94;5458830;25;43880;-47
2024/04/16 02:54:49;;;;;;;;;1.50;0.25;;;;;9.02;65.98;100609.09;5434763;25;56743;-50
2024/04/16 02:57:15;;;;;;;;;1.50;0.00;;;;;9.03;66.52;100595.16;5462784;26;43845;-52
2024/04/16 02:59:40;;;;;;;;;2.25;0.00;;;;;9.06;65.91;100596.84;5464614;26;44831;-47
2024/04/16 03:02:06;;;;;;;;;0.00;0.00;;;;;9.04;65.81;100588.19;5465027;25;43884;-53
2024/04/16 03:04:31;;;;;;;;;0.25;0.25;;;;;9.02;65.76;100597.81;5457928;25;72291;-47
2024/04/16 03:06:56;;;;;;;;;5.00;0.00;;;;;9.01;66.19;100596.06;5456170;26;44685;-49
2024/04/16 03:09:22;;;;;;;;;0.00;0.00;;;;;8.97;65.17;100595.28;5443903;25;72775;-49
2024/04/16 03:11:49;;;;;;;;;2.00;1.00;;;;;8.93;65.71;100594.50;5455642;26;45267;-49
2024/04/16 03:14:15;;;;;;;;;3.25;1.00;;;;;8.93;66.20;100599.72;5465184;25;44360;-47
2024/04/16 03:16:40;;;;;;;;;4.25;2.25;;;;;8.92;65.99;100600.63;5414304;26;43963;-52
2024/04/16 03:19:06;;;;;;;;;1.75;0.00;;;;;8.93;66.57;100609.31;5429054;26;68873;-52
2024/04/16 03:21:32;;;;;;;;;1.00;1.00;;;;;8.94;66.31;100608.41;5449946;26;44079;-53
2024/04/16 03:23:57;;;;;;;;;0.75;0.25;;;;;8.95;66.96;100612.75;5463374;25;43859;-48
2024/04/16 03:26:22;;;;;;;;;4.00;1.00;;;;;8.97;66.29;100607.50;5462569;25;75128;-50
2024/04/16 03:28:48;;;;;;;;;2.00;0.00;;;;;8.96;66.22;100598.81;5440550;25;69737;-49
2024/04/16 03:31:13;;;;;;;;;5.00;1.00;;;;;8.96;66.60;100593.59;5465924;25;43947;-48
2024/04/16 03:33:38;;;;;;;;;4.00;0.50;;;;;8.96;66.36;100592.72;5432829;25;72027;-52
2024/04/16 03:36:04;;;;;;;;;3.25;1.00;;;;;8.98;66.47;100590.91;5454395;25;69205;-45
2024/04/16 03:38:29;;;;;;;;;1.00;0.50;;;;;8.96;65.90;100598.81;5465852;25;44216;-52
2024/04/16 03:41:00;;;;;;;;;4.00;0.50;;;;;8.95;65.89;100591.00;5465190;25;57997;-47
2024/04/16 03:43:26;;;;;;;;;2.00;0.00;;;;;8.96;66.67;100597.94;5435158;25;43658;-51
2024/04/16 03:45:56;;;;;;;;;2.75;0.50;;;;;8.97;66.67;100589.22;5443567;25;43832;-46
2024/04/16 03:48:23;;;;;;;;;0.25;0.25;;;;;8.98;66.50;100601.34;5431302;26;44341;-49
2024/04/16 03:50:48;;;;;;;;;2.00;0.00;;;;;8.99;66.18;100598.72;5427619;26;43835;-46
2024/04/16 03:53:13;;;;;;;;;1.00;0.25;;;;;9.02;66.34;100596.03;5457639;26;71481;-48
2024/04/16 03:55:39;;;;;;;;;0.00;0.00;;;;;9.05;65.64;100592.53;5461822;25;57645;-49
2024/04/16 03:58:04;;;;;;;;;2.50;0.75;;;;;9.06;65.77;100587.25;5465571;26;43874;-49
2024/04/16 04:03:16;;;;;;;;;3.50;0.75;;;;;9.03;67.30;100597.78;5465244;26;43818;-54
2024/04/16 04:05:44;;;;;;;;;3.50;1.00;;;;;9.04;67.67;100593.41;5463862;25;43890;-49
2024/04/16 04:08:10;;;;;;;;;2.00;0.00;;;;;9.02;67.50;100592.59;5465173;25;43940;-49
2024/04/16 04:10:35;;;;;;;;;3.25;0.00;;;;;8.99;67.65;100587.44;5438022;26;67976;-47
2024/04/16 04:13:00;;;;;;;;;1.00;0.50;;;;;9.00;68.02;100590.00;5450107;25;72880;-47
2024/04/16 04:15:26;;;;;;;;;3.00;1.00;;;;;8.97;67.56;100597.91;5447017;25;75156;-48
2024/04/16 04:17:51;;;;;;;;;1.75;0.00;;;;;8.96;67.33;100598.81;5463315;26;68173;-47
2024/04/16 04:20:17;;;;;;;;;1.00;1.00;;;;;8.96;68.72;100597.94;5465217;25;43854;-47
2024/04/16 04:22:42;;;;;;;;;1.75;0.25;;;;;8.95;67.69;100606.69;5464125;25;72978;-48
2024/04/16 04:25:07;;;;;;;;;0.25;0.25;;;;;8.97;67.86;100604.88;5466576;25;69750;-46
2024/04/16 04:27:33;;;;;;;;;2.00;0.00;;;;;8.98;68.80;100604.84;5463826;25;71998;-47
2024/04/16 04:29:58;;;;;;;;;2.50;1.00;;;;;9.02;68.14;100597.81;5465395;25;44040;-45
2024/04/16 04:32:25;;;;;;;;;2.25;0.50;;;;;9.06;68.30;100615.09;5448659;26;69612;-49
2024/04/16 04:34:50;;;;;;;;;1.00;1.00;;;;;9.08;68.68;100602.88;5455912;25;44886;-47
2024/04/16 04:37:15;;;;;;;;;2.50;0.00;;;;;9.11;68.17;100619.31;5448079;26;73217;-51
2024/04/16 04:39:41;;;;;;;;;1.00;0.50;;;;;9.16;68.65;100621.00;5464394;25;56694;-51
2024/04/16 04:42:06;;;;;;;;;2.25;0.50;;;;;9.19;68.88;100610.47;5454149;25;43915;-49
2024/04/16 04:44:31;;;;;;;;;3.00;1.00;;;;;9.23;69.20;100615.59;5437332;25;69390;-51
2024/04/16 04:46:57;;;;;;;;;1.75;0.00;;;;;9.25;68.54;100613.78;5447718;25;66920;-48
2024/04/16 04:49:22;;;;;;;;;1.75;1.00;;;;;9.25;68.94;100612.94;5432019;26;61808;-49
2024/04/16 04:51:48;;;;;;;;;1.75;1.00;;;;;9.28;69.80;100626.78;5464229;25;43945;-52
2024/04/16 04:54:13;;;;;;;;;3.75;1.75;;;;;9.28;69.20;100616.34;5462245;25;75014;-48
2024/04/16 04:56:38;;;;;;;;;1.50;0.50;;;;;9.28;68.87;100618.94;5442781;25;60898;-49
2024/04/16 04:59:04;;;;;;;;;3.00;0.00;;;;;9.30;70.00;100622.38;5462563;26;57830;-51
2024/04/16 05:01:29;;;;;;;;;1.50;0.75;;;;;9.30;69.22;100625.00;5463740;25;51288;-51
2024/04/16 05:03:54;;;;;;;;;2.50;1.00;;;;;9.30;68.81;100627.59;5463127;25;69460;-51
2024/04/16 05:06:19;;;;;;;;;6.00;0.00;;;;;9.29;69.58;100617.19;5460023;25;71336;-51
2024/04/16 05:08:45;;;;;;;;;1.75;0.50;;;;;9.29;69.38;100625.88;5464438;25;43844;-54
2024/04/16 05:11:10;;;;;;;;;0.75;0.00;;;;;9.31;70.06;100625.84;5432098;26;70361;-49
2024/04/16 05:13:35;;;;;;;;;0.50;0.50;;;;;9.33;69.98;100629.31;5461655;26;61695;-49
2024/04/16 05:16:01;;;;;;;;;3.00;1.00;;;;;9.31;69.47;100625.84;5457207;25;53407;-48
2024/04/16 05:18:27;;;;;;;;;3.25;0.00;;;;;9.30;69.43;100635.44;5464167;25;43897;-47
2024/04/16 05:20:53;;;;;;;;;0.50;0.50;;;;;9.32;70.16;100624.97;5463782;25;43820;-46
2024/04/16 05:23:18;;;;;;;;;1.50;0.25;;;;;9.35;70.08;100618.78;5461913;26;46213;-46
2024/04/16 05:25:54;;;;;;;;;4.00;0.50;;;;;9.33;69.89;100618.84;5466345;25;43976;-47
2024/04/16 05:28:20;;;;;;;;;3.00;1.00;;;;;9.30;70.01;100616.31;5442121;26;44040;-47
2024/04/16 05:30:46;;;;;;;;;3.75;1.00;;;;;9.32;70.61;100631.03;5459022;26;43929;-51
2024/04/16 05:33:11;;;;;;;;;2.00;1.00;;;;;9.36;70.67;100628.34;5464846;26;46991;-51
2024/04/16 05:35:37;;;;;;;;;5.00;1.75;;;;;9.35;70.19;100619.66;5446526;25;57824;-48
2024/04/16 05:38:02;;;;;;;;;0.00;0.00;;;;;9.36;70.70;100616.16;5436592;26;68267;-47
2024/04/16 05:40:27;;;;;;;;;2.25;0.75;;;;;9.38;70.33;100618.72;5435921;26;43825;-47
2024/04/16 05:42:53;;;;;;;;;7.50;1.00;;;;;9.38;70.46;100611.75;5443846;25;74015;-47
2024/04/16 05:45:18;;;;;;;;;2.25;1.00;;;;;9.35;70.25;100617.06;5441551;25;69508;-51
2024/04/16 05:47:43;;;;;;;;;3.25;2.00;;;;;9.38;70.09;100616.97;5432530;26;53302;-47
2024/04/16 05:50:08;;;;;;;;;4.00;1.25;;;;;9.38;70.87;100630.03;5429303;26;71499;-49
2024/04/16 05:52:34;;;;;;;;;4.00;1.00;;;;;9.41;70.87;100626.50;5429786;26;69177;-48
2024/04/16 05:54:59;;;;;;;;;3.50;2.00;;;;;9.42;70.73;100629.06;5437923;25;67743;-50
2024/04/16 05:57:24;;;;;;;;;2.00;1.00;;;;;9.47;70.57;100642.00;5446072;26;61633;-52
2024/04/16 05:59:50;;;;;;;;;3.50;1.25;;;;;9.49;70.58;100629.75;5434255;25;58298;-49
2024/04/16 06:02:16;;;;;;;;;2.25;2.00;;;;;9.57;71.14;100626.97;5445786;26;45590;-48
2024/04/16 06:04:41;;;;;;;;;4.50;1.00;;;;;9.65;70.28;100628.50;5438838;25;70179;-46
2024/04/16 06:07:06;;;;;;;;;3.75;0.25;;;;;9.72;70.38;100630.94;5441652;26;66853;-46
2024/04/16 06:09:31;;;;;;;;;3.00;1.00;;;;;9.77;70.12;100624.72;5445414;25;63015;-47
2024/04/16 06:11:57;;;;;;;;;5.00;3.00;;;;;9.82;69.91;100625.44;5439427;26;74150;-47
2024/04/16 06:14:22;;;;;;;;;2.50;1.00;;;;;9.82;70.58;100622.00;5492728;25;59283;-52
2024/04/16 06:16:48;;;;;;;;;3.75;1.50;;;;;9.83;69.86;100636.78;5454467;25;44002;-47
2024/04/16 06:19:13;;;;;;;;;5.00;0.50;;;;;9.79;69.76;100638.63;5403027;26;68382;-49
2024/04/16 06:21:38;;;;;;;;;5.25;2.00;;;;;9.77;69.74;100650.00;5446179;26;75913;-47
2024/04/16 06:24:04;;;;;;;;;3.75;2.00;;;;;9.73;69.70;100635.28;5440755;25;63893;-50
2024/04/16 06:26:31;;;;;;;;;2.00;1.50;;;;;9.75;70.72;100638.72;5448935;25;43968;-49
2024/04/16 06:28:57;;;;;;;;;4.25;1.50;;;;;9.81;70.14;100644.66;5435775;25;43991;-54
2024/04/16 06:31:22;;;;;;;;;5.50;3.75;;;;;9.93;70.58;100646.09;5449048;26;45813;-46
2024/04/16 06:33:48;;;;;;;;;0.75;0.75;;;;;10.05;69.80;100656.22;5432550;26;43915;-49
2024/04/16 06:36:14;;;;;;;;;1.50;1.00;;;;;10.16;69.89;100647.25;5456642;25;43938;-51
2024/04/16 06:38:39;;;;;;;;;1.75;0.75;;;;;10.21;70.37;100642.75;5462959;26;43698;-52
2024/04/16 06:41:05;;;;;;;;;3.25;2.50;;;;;10.23;70.89;100648.78;5466702;25;44829;-48
2024/04/16 06:43:30;;;;;;;;;5.00;2.00;;;;;10.28;70.68;100654.75;5432299;26;71745;-49
2024/04/16 06:45:56;;;;;;;;;6.75;2.00;;;;;10.35;71.21;100647.66;5447162;25;47929;-52
2024/04/16 06:48:21;;;;;;;;;6.25;2.00;;;;;10.40;70.80;100648.38;5458060;26;43949;-49
2024/04/16 06:50:47;;;;;;;;;5.25;2.00;;;;;10.48;70.11;100653.38;5466435;25;45625;-49
2024/04/16 06:53:12;;;;;;;;;3.00;2.00;;;;;10.54;70.59;100654.09;5466714;25;43785;-48
2024/04/16 06:55:38;;;;;;;;;3.50;1.00;;;;;10.68;70.74;100671.13;5446697;25;45838;-50
2024/04/16 06:58:03;;;;;;;;;6.75;2.00;;;;;10.80;70.31;100662.94;5451092;26;59688;-50
2024/04/16 07:00:29;;;;;;;;;3.75;2.00;;;;;10.87;69.62;100654.03;5466761;25;44830;-52
2024/04/16 07:02:54;;;;;;;;;4.50;1.75;;;;;11.01;69.06;100666.69;5466526;25;43868;-51
2024/04/16 07:05:19;;;;;;;;;3.00;1.50;;;;;11.02;68.99;100663.16;5448169;25;58716;-49
2024/04/16 07:07:45;;;;;;;;;4.50;2.00;;;;;11.00;68.86;100660.59;5444834;26;71899;-50
2024/04/16 07:10:11;;;;;;;;;4.25;1.00;;;;;10.99;68.19;100660.63;5450322;25;45549;-51
2024/04/16 07:12:36;;;;;;;;;6.00;2.00;;;;;11.02;68.44;100664.03;5441972;26;43880;-50
2024/04/16 07:15:02;;;;;;;;;5.25;3.00;;;;;11.08;68.19;100668.22;5466004;25;43748;-52
2024/04/16 07:17:28;;;;;;;;;4.50;2.00;;;;;11.13;67.93;100655.84;5447654;25;43732;-48
2024/04/16 07:19:53;;;;;;;;;2.25;1.25;;;;;11.22;67.36;100670.41;5466191;25;44796;-49
2024/04/16 07:22:19;;;;;;;;;7.25;2.50;;;;;11.26;67.63;100674.69;5466174;25;43955;-50
2024/04/16 07:24:44;;;;;;;;;3.50;1.00;;;;;11.26;67.05;100661.56;5465419;25;57723;-47
2024/04/16 07:27:09;;;;;;;;;11.00;2.50;;;;;11.20;67.90;100661.75;5442532;25;71095;-49
2024/04/16 07:29:35;;;;;;;;;2.75;2.00;;;;;11.17;67.92;100672.31;5466669;25;44080;-50
2024/04/16 07:32:00;;;;;;;;;7.00;2.00;;;;;11.17;68.17;100677.56;5456669;25;69213;-49
2024/04/16 07:34:26;;;;;;;;;6.00;3.00;;;;;11.19;68.79;100679.25;5467411;25;45921;-48
2024/04/16 07:36:51;;;;;;;;;3.25;3.25;;;;;11.19;69.36;100684.47;5436190;25;43900;-52
2024/04/16 07:39:17;;;;;;;;;4.75;2.25;;;;;11.21;69.51;100674.81;5464683;26;72392;-46
2024/04/16 07:41:44;;;;;;;;;7.25;2.50;;;;;11.15;70.23;100669.72;5459152;25;44152;-52
2024/04/16 07:44:10;;;;;;;;;2.50;1.00;;;;;11.10;69.96;100668.16;5434056;25;43874;-48
2024/04/16 07:46:35;;;;;;;;;4.75;2.00;;;;;11.00;70.44;100673.69;5466194;25;43944;-49
2024/04/16 07:49:00;;;;;;;;;5.25;3.50;;;;;10.99;71.38;100671.97;5464809;25;73732;-49
2024/04/16 07:51:26;;;;;;;;;4.50;3.00;;;;;10.96;71.20;100672.06;5464824;25;65322;-49
2024/04/16 07:53:51;;;;;;;;;4.00;2.00;;;;;10.92;70.82;100674.81;5464887;25;67828;-50
2024/04/16 07:56:16;;;;;;;;;8.75;3.75;;;;;10.93;71.18;100693.09;5485109;25;50856;-49
2024/04/16 07:58:42;;;;;;;;;4.75;1.00;;;;;10.92;70.91;100670.44;5428412;26;72124;-47
2024/04/16 08:01:07;;;;;;;;;4.25;2.50;;;;;10.95;71.07;100672.13;5453041;26;43808;-48
2024/04/16 08:03:32;;;;;;;;;2.50;2.50;;;;;10.98;71.14;100680.75;5463000;26;64108;-46
2024/04/16 08:05:57;;;;;;;;;3.75;2.50;;;;;11.03;71.84;100678.00;5456441;25;71860;-49
2024/04/16 08:08:23;;;;;;;;;6.00;3.00;;;;;11.09;71.92;100671.72;5465142;25;62992;-48
2024/04/16 08:10:48;;;;;;;;;3.50;3.00;;;;;11.16;72.11;100674.09;5454800;26;43943;-51
2024/04/16 08:13:14;;;;;;;;;14.50;4.00;;;;;11.21;72.37;100681.81;5465292;25;63304;-49
2024/04/16 08:15:43;;;;;;;;;6.25;2.50;;;;;11.34;72.36;100672.66;5464146;25;43989;-48
2024/04/16 08:18:09;;;;;;;;;11.50;6.25;;;;;11.44;71.17;100685.47;5463748;26;45686;-48
2024/04/16 08:20:34;;;;;;;;;6.75;2.00;;;;;11.48;71.55;100679.25;5464558;25;63342;-45
2024/04/16 08:22:59;;;;;;;;;3.75;2.00;;;;;11.47;70.41;100675.75;5451236;25;43917;-47
2024/04/16 08:25:25;;;;;;;;;5.75;2.25;;;;;11.39;70.75;100677.75;5473764;25;71862;-50
2024/04/16 08:27:50;;;;;;;;;3.50;1.00;;;;;11.30;71.12;100680.69;5428127;26;59956;-47
2024/04/16 08:30:15;;;;;;;;;5.50;1.25;;;;;11.32;72.22;100681.47;5436588;26;44001;-49
2024/04/16 08:32:44;;;;;;;;;2.75;2.00;;;;;11.54;71.78;100685.16;5448578;26;69270;-49
2024/04/16 08:35:11;;;;;;;;;4.00;2.00;;;;;11.71;71.74;100673.25;5447749;25;44133;-50
2024/04/16 08:37:37;;;;;;;;;3.25;1.50;;;;;11.83;72.01;100680.72;5464968;25;44841;-51
2024/04/16 08:40:02;;;;;;;;;3.25;1.75;;;;;11.90;71.70;100684.00;5463796;25;72081;-50
2024/04/16 08:42:28;;;;;;;;;2.25;2.00;;;;;11.91;71.47;100683.97;5449610;25;43913;-47
2024/04/16 08:44:54;;;;;;;;;4.25;0.75;;;;;11.94;70.81;100689.09;5440009;26;49691;-48
2024/04/16 08:47:20;;;;;;;;;8.00;4.00;;;;;12.03;70.94;100687.94;5461954;26;75063;-47
2024/04/16 08:49:46;;;;;;;;;10.25;5.25;;;;;12.09;70.79;100692.13;5461816;26;70501;-47
2024/04/16 08:52:12;;;;;;;;;7.50;2.00;;;;;12.06;69.88;100703.59;5416097;26;59872;-47
2024/04/16 08:54:38;;;;;;;;;4.75;2.75;;;;;12.03;70.57;100695.81;5433756;25;43760;-52
2024/04/16 08:57:04;;;;;;;;;4.50;2.00;;;;;11.98;70.55;100700.34;5458788;26;44864;-53
2024/04/16 08:59:31;;;;;;;;;5.00;4.00;;;;;11.95;70.84;100697.81;5432907;26;72847;-50
2024/04/16 09:01:56;;;;;;;;;3.25;2.50;;;;;11.91;70.24;100696.22;5461086;26;43989;-49
2024/04/16 09:04:22;;;;;;;;;1.00;1.00;;;;;11.80;69.56;100693.06;5462372;25;59275;-49
2024/04/16 09:06:48;;;;;;;;;1.75;1.00;;;;;11.80;69.66;100685.22;5455913;26;65944;-55
2024/04/16 09:09:13;;;;;;;;;3.00;1.00;;;;;11.96;69.18;100694.31;5462948;25;60649;-52
2024/04/16 09:11:40;;;;;;;;;2.50;1.00;;;;;12.09;69.42;100694.75;5453975;26;43924;-53
2024/04/16 09:14:06;;;;;;;;;2.00;2.00;;;;;12.24;69.74;100693.38;5440264;25;44114;-50
2024/04/16 09:16:32;;;;;;;;;3.00;1.00;;;;;12.35;68.74;100699.94;5453448;26;44951;-47
2024/04/16 09:19:07;;;;;;;;;4.50;3.75;;;;;12.45;68.44;100697.03;5465617;26;43883;-49
2024/04/16 09:21:33;;;;;;;;;4.00;2.00;;;;;12.40;68.35;100705.03;5467300;25;43992;-46
2024/04/16 09:24:01;;;;;;;;;10.25;4.75;;;;;12.33;68.85;100686.03;5466911;25;43719;-47
2024/04/16 09:26:26;;;;;;;;;4.00;2.50;;;;;12.30;68.09;100694.00;5467307;25;45724;-51
2024/04/16 09:28:51;;;;;;;;;2.50;1.00;;;;;12.32;68.92;100688.69;5464665;26;67407;-50
2024/04/16 09:31:17;;;;;;;;;2.00;2.00;;;;;12.32;68.69;100700.06;5466641;25;68357;-47
2024/04/16 09:33:43;;;;;;;;;4.25;2.00;;;;;12.34;69.37;100697.38;5441389;25;43974;-47
2024/04/16 09:36:13;;;;;;;;;1.25;1.00;;;;;12.39;68.58;100702.47;5458408;25;44037;-47
2024/04/16 09:38:43;;;;;;;;;4.25;2.50;;;;;12.37;68.45;100699.03;5435086;26;43907;-49
2024/04/16 09:41:10;;;;;;;;;3.25;2.25;;;;;12.41;68.16;100698.03;5462273;25;44128;-49
2024/04/16 09:43:40;;;;;;;;;4.00;4.00;;;;;12.41;68.44;100708.53;5433566;25;43801;-49
2024/04/16 09:46:08;;;;;;;;;29.50;10.75;;;;;12.44;68.26;100709.28;5453916;25;44986;-48
2024/04/16 09:48:35;;;;;;;;;8.00;5.00;;;;;12.48;67.97;100713.53;5468048;25;43862;-50
2024/04/16 09:51:04;;;;;;;;;4.75;3.75;;;;;12.58;67.34;100713.19;5467145;25;43858;-50
2024/04/16 09:53:30;;;;;;;;;6.75;5.50;;;;;12.76;67.75;100702.00;5467590;25;43645;-50
2024/04/16 09:55:56;;;;;;;;;5.50;4.00;;;;;13.01;67.18;100703.72;5464460;25;45003;-46
2024/04/16 09:58:23;;;;;;;;;6.00;4.00;;;;;13.29;66.72;100698.28;5466465;26;69263;-47
2024/04/16 10:00:49;;;;;;;;;10.00;4.50;;;;;13.66;65.56;100699.47;5466347;26;59750;-46
2024/04/16 10:03:15;;;;;;;;;5.50;2.25;;;;;13.82;64.09;100687.41;5442903;26;43859;-48
2024/04/16 10:05:40;;;;;;;;;4.00;3.50;;;;;13.88;63.71;100696.81;5465748;25;47193;-48
2024/04/16 10:08:06;;;;;;;;;4.75;4.50;;;;;13.84;64.26;100708.38;5466331;25;73000;-49
2024/04/16 10:10:31;;;;;;;;;4.75;1.50;;;;;13.68;65.46;100744.97;5444283;25;44037;-45
2024/04/16 10:12:57;;;;;;;;;5.75;3.00;;;;;13.33;64.95;100759.50;5435310;26;44610;-48
2024/04/16 10:15:22;;;;;;;;;2.75;1.25;;;;;12.93;64.37;100730.28;5464981;25;75216;-49
2024/04/16 10:17:52;;;;;;;;;2.75;1.00;;;;;12.55;64.65;100750.88;5466184;25;43898;-48
2024/04/16 10:20:20;;;;;;;;;2.00;2.00;;;;;12.16;64.92;100727.72;5466832;25;43982;-48
2024/04/16 10:22:56;;;;;;;;;1.75;1.75;;;;;12.03;65.28;100734.31;5467189;25;43902;-47
2024/04/16 10:25:31;;;;;;;;;2.00;2.00;;;;;11.99;65.22;100722.19;5461172;25;45344;-51
2024/04/16 10:28:01;;;;;;;;;4.00;1.00;;;;;11.90;64.92;100724.22;5467161;25;44535;-50
2024/04/16 10:30:34;;;;;;;;;2.75;1.25;;;;;11.81;64.87;100719.25;5465058;26;44040;-50
2024/04/16 10:32:59;;;;;;;;;6.00;2.50;;;;;11.70;65.13;100719.56;5445270;26;43721;-50
2024/04/16 10:35:28;;;;;;;;;3.00;0.75;;;;;11.70;65.06;100716.09;5457130;25;44860;-51
2024/04/16 10:37:56;;;;;;;;;2.00;2.00;;;;;11.71;64.80;100723.06;5467068;25;43737;-49
2024/04/16 10:40:31;;;;;;;;;5.00;3.25;;;;;11.73;64.71;100710.75;5466725;26;44324;-52
2024/04/16 10:42:57;;;;;;;;;2.50;2.50;;;;;11.78;65.03;100716.72;5441410;26;44073;-51
2024/04/16 10:45:23;;;;;;;;;6.50;3.50;;;;;11.86;65.13;100716.47;5445266;25;43970;-49
2024/04/16 10:47:49;;;;;;;;;6.75;3.25;;;;;11.98;64.96;100702.13;5438717;26;49186;-48
2024/04/16 10:50:14;;;;;;;;;5.00;2.00;;;;;12.24;65.38;100696.84;5466106;26;43666;-50
2024/04/16 10:52:39;;;;;;;;;4.25;1.00;;;;;12.63;65.12;100690.25;5465687;25;72011;-48
2024/04/16 10:55:05;;;;;;;;;5.00;2.00;;;;;12.99;65.04;100692.44;5453865;25;61732;-52
2024/04/16 10:57:30;;;;;;;;;3.00;2.00;;;;;13.19;63.95;100678.50;5457108;26;43913;-49
2024/04/16 10:59:56;;;;;;;;;1.75;1.75;;;;;13.32;63.05;100674.53;5465783;25;69256;-52
2024/04/16 11:02:22;;;;;;;;;3.00;3.00;;;;;13.54;63.43;100676.31;5465297;25;71910;-53
2024/04/16 11:04:49;;;;;;;;;2.75;1.25;;;;;13.56;62.71;100683.19;5465847;25;44814;-51
2024/04/16 11:07:16;;;;;;;;;4.00;2.25;;;;;13.44;62.08;100689.81;5464749;25;43753;-50
2024/04/16 11:09:41;;;;;;;;;7.25;7.00;;;;;13.37;62.84;100693.63;5484158;25;43901;-49
2024/04/16 11:12:07;;;;;;;;;4.25;3.00;;;;;13.26;64.56;100690.50;5449424;26;43647;-51
2024/04/16 11:14:33;;;;;;;;;2.00;2.00;;;;;12.94;68.49;100691.72;5465750;25;44799;-50
2024/04/16 11:16:58;;;;;;;;;2.25;2.00;;;;;12.41;81.59;100711.16;5456624;26;63951;-48
2024/04/16 11:19:24;;;;;;;;;2.25;2.00;;;;;11.93;73.08;100695.28;5466891;25;43826;-47
2024/04/16 11:21:50;;;;;;;;;4.25;3.00;;;;;11.69;73.30;100696.91;5454663;26;44334;-48
2024/04/16 11:24:18;;;;;;;;;7.75;2.00;;;;;11.44;74.57;100707.31;5435130;25;44659;-50